Time;durP1;ratioP1;P1;durP2;ratioP2;P2;SDS_P1;SDS_P2;PMS_P1;PMS_P2;Temp;Humidity;BMP_temperature;BMP_pressure;BME280_temperature;BME280_humidity;BME280_pressure;Samples;Min_cycle;Max_cycle;Signal;HPM_P1;HPM_P2
2022/01/17 00:02:18;;;;;;;109.60;59.63;;;;;;;-1.75;69.02;95717.22;5007431;28;20037;-64
2022/01/17 00:04:44;;;;;;;99.05;58.25;;;;;;;-1.18;69.04;95809.72;5006037;28;20026;-67
2022/01/17 00:07:10;;;;;;;105.07;58.40;;;;;;;-1.39;69.31;95777.78;5007565;28;20449;-66
2022/01/17 00:09:35;;;;;;;102.93;59.75;;;;;;;-1.45;69.93;95787.94;5007365;28;20466;-64
2022/01/17 00:12:01;;;;;;;100.82;56.03;;;;;;;-1.71;69.43;95749.22;5010900;28;20481;-65
2022/01/17 00:14:33;;;;;;;101.40;55.15;;;;;;;-1.46;69.79;95804.78;5010724;28;20052;-67
2022/01/17 00:17:21;;;;;;;109.57;54.67;;;;;;;-1.29;69.80;95804.72;5010378;28;20108;-65
2022/01/17 00:19:52;;;;;;;101.05;58.70;;;;;;;-1.38;69.60;95802.22;5011038;28;20546;-64
2022/01/17 00:22:20;;;;;;;104.67;57.27;;;;;;;-1.48;69.93;95798.88;5010286;28;20471;-65
2022/01/17 00:24:46;;;;;;;93.75;53.40;;;;;;;-1.53;70.47;95805.66;5010736;28;20730;-62
2022/01/17 00:27:12;;;;;;;105.20;60.22;;;;;;;-1.46;69.99;95809.84;5010553;28;20500;-64
2022/01/17 00:29:38;;;;;;;99.90;53.92;;;;;;;-1.55;69.15;95797.22;5010535;28;20041;-65
2022/01/17 00:32:04;;;;;;;104.38;57.78;;;;;;;-1.55;69.59;95809.88;5010049;28;20034;-64
2022/01/17 00:34:29;;;;;;;108.88;58.97;;;;;;;-1.71;70.65;95798.97;5010228;28;20034;-66
2022/01/17 00:36:55;;;;;;;113.45;63.85;;;;;;;-1.74;70.43;95817.53;5010177;28;20033;-65
2022/01/17 00:39:20;;;;;;;125.90;66.78;;;;;;;-1.90;70.69;95831.88;5010465;28;20477;-64
2022/01/17 00:41:46;;;;;;;128.57;70.35;;;;;;;-2.17;70.91;95792.28;5010241;28;20040;-62
2022/01/17 00:44:12;;;;;;;125.85;67.75;;;;;;;-2.10;70.69;95813.34;5010064;28;20053;-63
2022/01/17 00:46:38;;;;;;;129.77;68.07;;;;;;;-2.45;71.32;95762.00;5009904;28;20499;-63
2022/01/17 00:49:04;;;;;;;120.95;68.43;;;;;;;-2.07;71.45;95811.66;5010240;28;20103;-63
2022/01/17 00:51:30;;;;;;;122.63;68.03;;;;;;;-2.20;71.84;95799.03;5010119;28;20037;-65
2022/01/17 00:53:56;;;;;;;119.65;67.22;;;;;;;-2.29;71.62;95762.84;5010027;28;20113;-63
2022/01/17 00:56:22;;;;;;;132.93;66.53;;;;;;;-1.93;71.17;95801.53;5010062;28;20546;-64
2022/01/17 00:58:49;;;;;;;123.05;69.35;;;;;;;-1.84;71.41;95798.13;5009890;28;20091;-63
2022/01/17 01:01:14;;;;;;;122.65;68.13;;;;;;;-1.87;71.52;95791.41;5009635;28;20030;-65
2022/01/17 01:03:40;;;;;;;123.05;70.18;;;;;;;-1.68;70.98;95798.94;5009812;28;20034;-64
2022/01/17 01:06:05;;;;;;;120.03;67.50;;;;;;;-1.58;70.49;95802.31;5009518;28;20026;-63
2022/01/17 01:08:31;;;;;;;117.57;66.05;;;;;;;-1.65;71.10;95800.66;5009594;28;20030;-63
2022/01/17 01:10:57;;;;;;;117.13;65.00;;;;;;;-1.75;71.07;95788.00;5009304;28;20029;-63
2022/01/17 01:13:24;;;;;;;115.53;65.88;;;;;;;-1.76;70.79;95775.38;5009193;28;20481;-66
2022/01/17 01:29:10;;;;;;;137.77;76.90;;;;;;;-2.25;71.95;95756.94;5009406;28;20060;-64
2022/01/17 01:34:27;;;;;;;142.68;81.32;;;;;;;-2.19;71.89;95778.84;5009347;28;20095;-63
2022/01/17 01:36:53;;;;;;;156.38;85.20;;;;;;;-2.51;71.64;95756.97;5008919;28;20022;-65
2022/01/17 01:39:23;;;;;;;156.13;84.63;;;;;;;-2.42;72.25;95777.16;5009297;28;20630;-64
2022/01/17 01:41:49;;;;;;;148.40;80.65;;;;;;;-2.55;72.22;95770.44;5009040;28;20122;-65
2022/01/17 01:44:18;;;;;;;150.13;84.00;;;;;;;-2.38;71.58;95783.03;5009045;28;20064;-64
2022/01/17 01:46:46;;;;;;;157.40;85.80;;;;;;;-2.66;71.98;95746.84;5008649;28;20040;-64
2022/01/17 01:49:13;;;;;;;148.27;85.15;;;;;;;-2.40;72.32;95783.03;5008985;28;20058;-63
2022/01/17 01:51:39;;;;;;;159.52;85.07;;;;;;;-2.33;72.26;95771.25;5008716;28;20036;-62
2022/01/17 01:54:04;;;;;;;141.88;78.35;;;;;;;-2.28;70.74;95764.53;5009144;28;20113;-63
2022/01/17 01:56:30;;;;;;;151.25;82.63;;;;;;;-2.21;71.65;95770.41;5008852;28;20026;-64
2022/01/17 01:58:56;;;;;;;153.10;80.22;;;;;;;-2.22;71.60;95756.09;5008765;28;20488;-64
2022/01/17 02:01:22;;;;;;;139.07;72.43;;;;;;;-2.22;72.01;95744.28;5008680;28;20033;-63
2022/01/17 02:03:48;;;;;;;94.32;54.70;;;;;;;-2.22;69.28;95734.19;5008722;28;20405;-65
2022/01/17 02:06:14;;;;;;;69.40;39.72;;;;;;;-2.07;65.34;95758.56;5008714;28;20429;-62
2022/01/17 02:08:39;;;;;;;85.18;48.17;;;;;;;-2.12;66.23;95760.28;5008664;28;20090;-64
2022/01/17 02:11:07;;;;;;;84.82;42.88;;;;;;;-2.08;65.87;95751.84;5008144;28;20029;-64
2022/01/17 02:13:32;;;;;;;82.35;43.80;;;;;;;-2.05;65.65;95741.75;5008744;28;20199;-64
2022/01/17 02:16:05;;;;;;;69.53;40.80;;;;;;;-2.09;65.25;95724.06;5008425;28;20569;-64
2022/01/17 02:18:31;;;;;;;73.35;39.45;;;;;;;-1.88;64.53;95735.81;5008698;28;20056;-64
2022/01/17 02:23:37;;;;;;;73.25;39.00;;;;;;;-2.06;63.92;95721.53;5008104;28;20342;-64
2022/01/17 02:26:02;;;;;;;65.30;36.95;;;;;;;-1.99;64.57;95745.94;5008599;28;20036;-63
2022/01/17 02:28:28;;;;;;;65.40;36.67;;;;;;;-2.25;65.26;95715.66;5008523;28;20030;-66
2022/01/17 02:30:54;;;;;;;62.47;35.42;;;;;;;-1.97;64.89;95744.25;5008469;28;20092;-63
2022/01/17 02:33:20;;;;;;;62.40;38.83;;;;;;;-1.99;64.74;95737.53;5007373;28;20484;-68
2022/01/17 02:35:49;;;;;;;71.38;38.08;;;;;;;-2.00;64.98;95733.28;5008027;28;20030;-63
2022/01/17 02:38:14;;;;;;;61.20;35.70;;;;;;;-2.01;64.36;95739.22;5008441;28;20030;-64
2022/01/17 02:40:40;;;;;;;63.78;35.58;;;;;;;-1.95;64.78;95742.56;5008067;28;20507;-64
2022/01/17 02:43:07;;;;;;;61.03;33.97;;;;;;;-2.14;64.67;95708.06;5008584;28;20053;-65
2022/01/17 02:45:37;;;;;;;56.60;34.42;;;;;;;-1.92;64.37;95749.28;5007677;28;20088;-64
2022/01/17 02:48:05;;;;;;;67.07;36.20;;;;;;;-1.92;64.32;95746.75;5008171;28;20520;-65
2022/01/17 02:50:31;;;;;;;79.10;40.83;;;;;;;-1.77;64.68;95750.94;5008014;28;20334;-66
2022/01/17 02:52:59;;;;;;;81.13;46.00;;;;;;;-1.86;64.95;95709.66;5008022;28;20536;-63
2022/01/17 02:55:24;;;;;;;88.07;48.78;;;;;;;-1.64;65.79;95752.59;5008178;28;20018;-65
2022/01/17 02:57:50;;;;;;;92.97;51.67;;;;;;;-1.57;67.01;95746.66;5007148;28;20048;-62
2022/01/17 03:00:15;;;;;;;102.47;55.47;;;;;;;-1.54;67.15;95744.13;5008034;28;20116;-63
2022/01/17 03:02:42;;;;;;;107.10;55.70;;;;;;;-1.51;67.35;95739.03;5007803;28;20112;-64
2022/01/17 03:05:10;;;;;;;99.38;55.63;;;;;;;-1.73;67.62;95705.41;5008260;28;20018;-64
2022/01/17 03:07:36;;;;;;;95.50;52.00;;;;;;;-1.59;67.61;95735.72;5007718;28;20030;-63
2022/01/17 03:10:04;;;;;;;96.65;51.42;;;;;;;-1.62;67.02;95725.59;5008058;28;20166;-65
2022/01/17 03:12:30;;;;;;;95.03;52.63;;;;;;;-1.73;68.12;95733.22;5007940;28;20364;-64
2022/01/17 03:14:56;;;;;;;95.00;49.75;;;;;;;-1.88;67.82;95705.47;5007635;28;20520;-66
2022/01/17 03:17:22;;;;;;;90.22;48.85;;;;;;;-2.00;68.12;95698.78;5007681;28;20136;-65
2022/01/17 03:19:47;;;;;;;80.70;48.15;;;;;;;-1.86;67.80;95722.28;5007737;28;20037;-64
2022/01/17 03:22:13;;;;;;;81.07;49.40;;;;;;;-2.09;67.98;95699.63;5007573;28;20493;-64
2022/01/17 03:24:38;;;;;;;87.53;48.40;;;;;;;-1.91;68.62;95743.41;5007976;28;20022;-64
2022/01/17 03:27:04;;;;;;;90.03;49.88;;;;;;;-2.04;67.56;95717.31;5007481;28;20057;-65
2022/01/17 03:29:29;;;;;;;92.07;49.42;;;;;;;-2.09;68.21;95717.31;5007925;28;20120;-64
2022/01/17 03:31:56;;;;;;;94.05;50.75;;;;;;;-1.93;68.02;95737.50;5007777;28;20037;-63
2022/01/17 03:34:21;;;;;;;89.57;49.45;;;;;;;-1.76;67.59;95727.34;5007381;28;20508;-66
2022/01/17 03:36:47;;;;;;;99.72;54.38;;;;;;;-1.87;67.62;95735.81;5007993;28;20068;-62
2022/01/17 03:39:12;;;;;;;94.20;53.75;;;;;;;-2.03;68.87;95741.75;5007841;28;20081;-64
2022/01/17 03:41:38;;;;;;;101.85;54.88;;;;;;;-2.36;69.13;95694.63;5007482;28;20030;-63
2022/01/17 03:44:04;;;;;;;106.70;60.10;;;;;;;-2.40;69.10;95707.25;5007873;28;20413;-67
2022/01/17 03:46:29;;;;;;;102.07;56.88;;;;;;;-2.49;69.30;95694.66;5010385;28;20442;-63
2022/01/17 03:48:55;;;;;;;95.85;53.92;;;;;;;-2.22;69.37;95725.78;5011262;28;20091;-63
2022/01/17 03:51:20;;;;;;;87.68;48.40;;;;;;;-1.96;68.80;95747.63;5011343;28;20157;-63
2022/01/17 03:53:46;;;;;;;87.70;49.22;;;;;;;-2.01;68.87;95734.16;5011379;28;20408;-65
2022/01/17 03:56:11;;;;;;;88.18;48.30;;;;;;;-1.96;68.47;95745.09;5011008;28;20465;-63
2022/01/17 03:58:37;;;;;;;85.35;49.47;;;;;;;-1.89;68.37;95756.88;5010563;28;20075;-63
2022/01/17 04:01:03;;;;;;;88.15;49.53;;;;;;;-2.41;69.20;95672.75;5010996;28;20049;-63
2022/01/17 04:03:29;;;;;;;102.30;56.08;;;;;;;-1.88;68.44;95753.50;5011375;28;20033;-63
2022/01/17 04:05:55;;;;;;;92.75;52.00;;;;;;;-2.07;68.65;95728.25;5010942;28;20489;-64
2022/01/17 04:08:21;;;;;;;87.35;47.05;;;;;;;-2.10;68.93;95725.75;5010894;28;20057;-65
2022/01/17 04:10:47;;;;;;;90.82;51.15;;;;;;;-1.90;68.83;95756.03;5010663;28;20030;-64
2022/01/17 04:13:13;;;;;;;87.85;49.53;;;;;;;-2.07;68.89;95732.47;5010813;28;20030;-66
2022/01/17 04:15:39;;;;;;;89.47;48.55;;;;;;;-1.96;69.07;95762.78;5010788;28;20026;-63
2022/01/17 04:18:06;;;;;;;86.00;47.45;;;;;;;-1.96;69.21;95755.22;5011136;28;20037;-65
2022/01/17 04:20:33;;;;;;;77.28;47.45;;;;;;;-1.95;69.64;95747.63;4999412;28;20081;-64
2022/01/17 04:23:07;;;;;;;101.90;53.00;;;;;;;-2.15;69.30;95724.06;4990600;28;20168;-64
2022/01/17 04:25:34;;;;;;;60.40;32.08;;;;;;;-1.97;66.02;95745.94;4990003;28;20042;-64
2022/01/17 04:28:01;;;;;;;60.35;33.17;;;;;;;-2.38;64.10;95671.06;4991182;28;20034;-64
2022/01/17 04:30:28;;;;;;;61.33;35.17;;;;;;;-1.86;64.46;95751.81;4991440;28;20034;-63
2022/01/17 04:32:54;;;;;;;60.65;36.65;;;;;;;-1.92;64.75;95756.88;4991187;28;20113;-64
2022/01/17 04:35:22;;;;;;;57.55;34.85;;;;;;;-1.95;64.79;95756.88;4990405;28;20037;-65
2022/01/17 04:37:57;;;;;;;63.05;35.80;;;;;;;-1.99;64.76;95752.69;4990484;28;20034;-64
2022/01/17 04:40:23;;;;;;;68.78;37.00;;;;;;;-2.10;65.40;95747.63;4991071;28;20038;-63
2022/01/17 04:42:51;;;;;;;66.80;39.67;;;;;;;-1.98;65.68;95742.56;4990497;28;20130;-64
2022/01/17 04:45:19;;;;;;;74.72;41.17;;;;;;;-1.85;66.51;95740.84;4990461;28;20551;-64
2022/01/17 04:47:48;;;;;;;76.35;41.55;;;;;;;-1.82;67.32;95745.03;4990509;28;20437;-63
2022/01/17 04:50:19;;;;;;;65.57;39.05;;;;;;;-1.89;67.10;95731.59;4990382;28;20038;-63
2022/01/17 04:52:44;;;;;;;73.53;42.53;;;;;;;-1.84;68.20;95745.03;4990659;28;20023;-65
2022/01/17 04:55:11;;;;;;;77.53;43.33;;;;;;;-1.77;68.13;95740.81;4990650;28;20096;-64
2022/01/17 04:57:38;;;;;;;76.30;43.45;;;;;;;-2.31;67.53;95683.69;4989398;28;20045;-65
2022/01/17 05:00:09;;;;;;;65.78;40.85;;;;;;;-1.97;68.23;95740.88;4990309;28;20048;-65
2022/01/17 05:02:34;;;;;;;77.40;46.10;;;;;;;-1.87;67.61;95755.16;4990866;28;20026;-65
2022/01/17 05:05:02;;;;;;;68.75;40.72;;;;;;;-2.58;67.90;95645.00;4990722;28;20041;-67
2022/01/17 05:07:28;;;;;;;62.45;37.42;;;;;;;-1.88;68.12;95744.22;4990844;28;20041;-62
2022/01/17 05:09:53;;;;;;;73.57;39.10;;;;;;;-2.09;67.53;95713.94;4990763;28;20464;-64
2022/01/17 05:12:19;;;;;;;74.35;38.40;;;;;;;-1.95;67.47;95736.66;4990799;28;20030;-63
2022/01/17 05:14:48;;;;;;;65.57;39.00;;;;;;;-1.99;66.80;95738.34;4990987;28;20112;-62
2022/01/17 05:19:57;;;;;;;71.97;39.85;;;;;;;-2.13;64.76;95745.97;4990465;28;20532;-63
2022/01/17 05:22:25;;;;;;;69.45;40.45;;;;;;;-2.15;64.64;95752.69;4990317;28;20065;-62
2022/01/17 05:24:51;;;;;;;78.07;44.95;;;;;;;-2.16;64.94;95755.25;4990602;28;20038;-64
2022/01/17 05:27:16;;;;;;;90.65;46.20;;;;;;;-2.43;65.06;95714.88;4990403;28;20383;-66
2022/01/17 05:29:42;;;;;;;97.85;52.45;;;;;;;-2.41;65.38;95713.19;4990630;28;20042;-63
2022/01/17 05:32:08;;;;;;;82.22;46.00;;;;;;;-2.37;65.29;95720.75;4990405;28;20409;-67
2022/01/17 05:34:34;;;;;;;85.53;47.28;;;;;;;-2.29;65.98;95746.84;4989778;28;20034;-66
2022/01/17 05:37:01;;;;;;;69.60;41.28;;;;;;;-2.21;64.91;95735.03;4990251;28;20041;-65
2022/01/17 05:39:26;;;;;;;82.15;43.92;;;;;;;-2.27;63.89;95713.13;4990062;28;20026;-64
2022/01/17 05:41:52;;;;;;;70.22;41.55;;;;;;;-2.18;64.17;95750.19;4989870;28;20026;-63
2022/01/17 05:44:17;;;;;;;65.28;37.53;;;;;;;-2.19;63.59;95743.44;4990044;28;20409;-63
2022/01/17 05:46:42;;;;;;;62.65;34.10;;;;;;;-1.99;61.88;95729.94;4989458;28;20606;-63
2022/01/17 05:49:08;;;;;;;59.92;33.70;;;;;;;-1.89;61.58;95750.09;4989812;28;20022;-64
2022/01/17 05:51:33;;;;;;;51.80;29.10;;;;;;;-2.00;61.35;95736.69;4989802;28;20030;-64
2022/01/17 05:53:59;;;;;;;60.83;32.42;;;;;;;-1.93;60.86;95755.22;4989756;28;20034;-64
2022/01/17 05:56:24;;;;;;;57.47;34.40;;;;;;;-2.05;61.92;95763.63;4990246;28;20034;-63
2022/01/17 05:58:50;;;;;;;56.58;34.17;;;;;;;-2.06;61.69;95759.44;5007997;28;20116;-66
2022/01/17 06:01:15;;;;;;;65.10;35.55;;;;;;;-2.10;62.29;95767.84;5009243;28;20116;-63
2022/01/17 06:03:41;;;;;;;56.03;34.22;;;;;;;-2.10;61.80;95768.72;5009030;28;20022;-64
2022/01/17 06:06:06;;;;;;;61.95;32.88;;;;;;;-2.13;63.23;95780.50;5008922;28;20052;-64
2022/01/17 06:08:33;;;;;;;47.33;27.88;;;;;;;-2.30;61.41;95748.50;5007911;28;20400;-64
2022/01/17 06:10:59;;;;;;;50.17;30.58;;;;;;;-2.15;61.86;95745.13;5008715;28;20017;-63
2022/01/17 06:13:25;;;;;;;49.17;29.67;;;;;;;-1.82;60.90;95762.75;5007336;28;20073;-65
2022/01/17 06:15:50;;;;;;;48.33;25.13;;;;;;;-1.92;60.07;95761.91;5005605;28;20038;-62
2022/01/17 06:18:16;;;;;;;48.08;27.20;;;;;;;-1.93;60.08;95768.69;5004978;28;20082;-62
2022/01/17 06:20:41;;;;;;;52.50;30.48;;;;;;;-1.93;60.62;95757.72;5004579;28;20493;-63
2022/01/17 06:23:07;;;;;;;51.15;29.67;;;;;;;-1.75;60.53;95772.84;5003218;28;20450;-63
2022/01/17 06:25:32;;;;;;;50.60;28.25;;;;;;;-1.64;58.97;95775.34;5003476;28;20068;-65
2022/01/17 06:27:58;;;;;;;53.72;30.42;;;;;;;-1.74;58.95;95753.44;5004070;28;20022;-65
2022/01/17 06:30:24;;;;;;;53.80;28.77;;;;;;;-1.72;59.91;95760.19;5004733;28;20044;-63
2022/01/17 06:32:49;;;;;;;49.30;28.23;;;;;;;-1.75;60.12;95762.72;5005467;28;20042;-64
2022/01/17 06:35:15;;;;;;;49.65;28.30;;;;;;;-1.56;58.69;95766.06;5004617;28;20030;-63
2022/01/17 06:37:42;;;;;;;51.90;29.77;;;;;;;-1.45;58.69;95768.53;5005250;28;20505;-63
2022/01/17 06:40:08;;;;;;;51.63;30.17;;;;;;;-1.43;58.17;95748.28;5005068;28;20030;-66
2022/01/17 06:42:35;;;;;;;47.63;27.33;;;;;;;-1.52;58.13;95755.06;5003415;28;20053;-66
2022/01/17 06:45:04;;;;;;;49.05;28.48;;;;;;;-1.31;57.73;95771.00;5004804;28;20036;-65
2022/01/17 06:47:33;;;;;;;52.97;28.92;;;;;;;-1.16;57.90;95781.03;5004860;28;20490;-67
2022/01/17 06:49:59;;;;;;;55.25;31.77;;;;;;;-1.08;57.24;95791.13;5005193;28;20516;-68
2022/01/17 06:52:24;;;;;;;56.72;30.05;;;;;;;-1.47;57.73;95704.44;5005319;28;20065;-67
2022/01/17 06:54:52;;;;;;;56.45;30.92;;;;;;;-1.00;57.29;95765.75;5005439;28;20068;-66
2022/01/17 06:57:19;;;;;;;47.40;31.27;;;;;;;-0.85;57.36;95775.81;5004242;28;20061;-65
2022/01/17 06:59:45;;;;;;;59.22;31.30;;;;;;;-0.69;57.20;95763.03;5004984;28;20046;-63
2022/01/17 07:02:10;;;;;;;55.50;31.25;;;;;;;-0.75;56.58;95731.84;5004634;28;20067;-66
2022/01/17 07:04:36;;;;;;;51.47;30.08;;;;;;;-0.64;56.20;95733.44;5005453;28;20030;-66
2022/01/17 07:07:03;;;;;;;53.08;31.00;;;;;;;-0.35;56.41;95756.00;5005156;28;20044;-65
2022/01/17 07:09:29;;;;;;;57.35;31.92;;;;;;;-0.23;56.35;95760.13;5005028;28;20026;-64
2022/01/17 07:11:58;;;;;;;53.55;33.60;;;;;;;-0.24;56.46;95758.47;5004436;28;20038;-64
2022/01/17 07:14:26;;;;;;;44.40;24.85;;;;;;;-0.04;56.67;95760.81;5000541;28;20040;-66
2022/01/17 07:16:52;;;;;;;27.65;17.52;;;;;;;0.25;56.06;95762.22;5004257;28;20045;-66
2022/01/17 07:19:17;;;;;;;31.48;17.83;;;;;;;0.47;55.69;95755.19;5006578;28;20038;-64
2022/01/17 07:21:43;;;;;;;19.45;12.27;;;;;;;0.74;55.25;95774.34;5008321;28;20548;-63
2022/01/17 07:24:08;;;;;;;24.80;12.25;;;;;;;0.64;54.86;95739.75;5009117;28;20137;-64
2022/01/17 07:26:34;;;;;;;19.80;12.52;;;;;;;0.94;55.01;95784.22;5009046;28;20030;-66
2022/01/17 07:29:00;;;;;;;21.80;12.32;;;;;;;1.13;54.81;95797.50;5007802;28;20493;-64
2022/01/17 07:31:26;;;;;;;22.95;12.13;;;;;;;1.06;54.71;95762.91;5009306;28;20026;-66
2022/01/17 07:33:51;;;;;;;20.60;11.18;;;;;;;1.31;54.76;95787.97;5006803;28;20124;-64
2022/01/17 07:36:19;;;;;;;21.95;11.38;;;;;;;1.35;54.61;95782.81;5008469;28;20041;-65
2022/01/17 07:38:46;;;;;;;25.40;12.15;;;;;;;1.39;54.89;95786.97;5007966;28;20073;-64
2022/01/17 07:41:12;;;;;;;18.40;12.20;;;;;;;1.33;54.72;95763.34;5008587;28;20028;-66
2022/01/17 07:43:38;;;;;;;21.77;11.15;;;;;;;1.44;55.03;95759.81;5008066;28;20472;-65
2022/01/17 07:46:13;;;;;;;21.38;12.95;;;;;;;1.47;55.15;95758.91;5007519;28;20136;-65
2022/01/17 07:51:26;;;;;;;23.25;12.07;;;;;;;1.27;56.00;95739.72;5008562;28;20397;-68
2022/01/17 07:53:52;;;;;;;24.83;12.77;;;;;;;1.52;56.35;95782.56;5008243;28;20026;-68
2022/01/17 07:56:18;;;;;;;21.42;13.43;;;;;;;1.65;56.15;95793.38;5008182;28;20509;-66
2022/01/17 07:58:44;;;;;;;21.88;11.73;;;;;;;1.84;55.54;95819.38;5007568;28;20084;-66
2022/01/17 08:01:09;;;;;;;22.70;12.18;;;;;;;1.78;55.40;95827.09;5007893;28;20037;-65
2022/01/17 08:03:35;;;;;;;16.17;11.45;;;;;;;1.92;54.87;95837.88;5008152;28;20026;-65
2022/01/17 08:06:01;;;;;;;17.73;11.30;;;;;;;1.88;54.24;95800.63;5007996;28;20103;-66
2022/01/17 08:08:27;;;;;;;20.25;11.27;;;;;;;2.20;54.23;95827.25;5008144;28;20064;-64
2022/01/17 08:10:52;;;;;;;26.95;14.20;;;;;;;2.33;53.84;95797.34;5007037;28;20053;-64
2022/01/17 08:13:21;;;;;;;20.45;10.80;;;;;;;2.15;51.82;95710.28;5003967;28;20068;-64
2022/01/17 08:15:48;;;;;;;16.48;9.65;;;;;;;2.52;50.13;95696.81;5008963;28;20378;-66
2022/01/17 08:18:14;;;;;;;8.32;4.90;;;;;;;2.88;48.19;95729.19;5011057;28;20030;-63
2022/01/17 08:20:40;;;;;;;9.88;5.55;;;;;;;3.10;47.99;95738.03;5009417;28;20481;-66
2022/01/17 08:23:07;;;;;;;13.02;6.20;;;;;;;3.16;47.76;95731.97;5010624;28;20028;-64
2022/01/17 08:25:33;;;;;;;23.10;6.35;;;;;;;2.74;48.24;95686.19;4996543;28;20413;-66
2022/01/17 08:27:59;;;;;;;13.75;7.90;;;;;;;3.26;48.08;95786.97;5002546;28;20036;-66
2022/01/17 08:30:25;;;;;;;16.88;9.10;;;;;;;4.91;46.04;95821.16;5010302;28;20112;-64
2022/01/17 08:32:51;;;;;;;16.40;9.73;;;;;;;7.26;40.73;95824.72;5010747;28;20037;-63
2022/01/17 08:35:19;;;;;;;18.35;10.45;;;;;;;9.92;36.63;95842.78;5010505;28;20511;-66
2022/01/17 08:37:44;;;;;;;19.00;11.52;;;;;;;11.73;32.87;95855.19;5009254;28;20025;-65
2022/01/17 08:40:10;;;;;;;17.75;10.77;;;;;;;13.11;29.67;95765.44;5010813;28;20034;-67
2022/01/17 08:42:38;;;;;;;18.50;11.73;;;;;;;13.67;28.31;95693.69;5009234;28;20034;-65
2022/01/17 08:45:15;;;;;;;16.92;11.48;;;;;;;14.64;26.89;95765.19;5010415;28;20117;-64
2022/01/17 08:47:43;;;;;;;16.98;11.00;;;;;;;15.62;26.01;95751.53;5009998;28;20033;-63
2022/01/17 08:50:08;;;;;;;15.55;10.43;;;;;;;16.37;24.50;95744.41;5006328;28;20525;-65
2022/01/17 08:52:37;;;;;;;16.83;11.43;;;;;;;15.87;24.30;95677.81;5006459;28;20018;-65
2022/01/17 08:55:03;;;;;;;16.50;11.18;;;;;;;17.73;22.98;95667.03;5008767;28;20188;-66
2022/01/17 08:57:28;;;;;;;14.95;10.75;;;;;;;17.44;22.76;95639.72;5009388;28;20128;-68
2022/01/17 08:59:53;;;;;;;14.43;10.85;;;;;;;18.16;21.67;95679.19;5010558;28;20045;-67
2022/01/17 09:02:19;;;;;;;18.30;11.20;;;;;;;18.43;21.39;95694.34;5009737;28;20032;-65
2022/01/17 09:04:47;;;;;;;17.30;12.07;;;;;;;18.90;20.60;95633.81;5010237;28;20468;-65
2022/01/17 09:07:15;;;;;;;20.10;11.60;;;;;;;19.77;19.19;95556.41;5010262;28;20044;-67
2022/01/17 09:09:42;;;;;;;22.45;13.18;;;;;;;20.45;18.74;95606.00;5009627;28;20029;-68
2022/01/17 09:12:09;;;;;;;26.73;13.40;;;;;;;20.89;18.58;95606.25;5009524;28;20117;-66
2022/01/17 09:14:36;;;;;;;18.60;13.27;;;;;;;21.78;16.94;95588.13;5010297;28;20495;-64
2022/01/17 09:17:04;;;;;;;23.48;13.98;;;;;;;21.46;17.05;95606.06;5009513;28;20067;-70
2022/01/17 09:19:29;;;;;;;19.15;13.63;;;;;;;21.49;16.82;95618.06;5010252;28;20038;-66
2022/01/17 09:21:55;;;;;;;23.23;15.50;;;;;;;22.69;16.16;95615.81;5009312;28;20030;-65
2022/01/17 09:24:21;;;;;;;17.85;12.85;;;;;;;21.69;16.64;95568.03;5009746;28;20046;-65
2022/01/17 09:26:47;;;;;;;18.17;11.98;;;;;;;22.27;16.31;95627.88;5008414;28;20042;-65
2022/01/17 09:29:13;;;;;;;18.60;10.38;;;;;;;23.04;15.57;95616.66;5009393;28;20038;-64
2022/01/17 09:31:38;;;;;;;12.55;10.02;;;;;;;21.80;16.62;95630.81;5009440;28;20061;-63
2022/01/17 09:34:05;;;;;;;17.48;10.93;;;;;;;21.92;16.96;95637.47;5009562;28;20057;-67
2022/01/17 09:36:34;;;;;;;17.02;9.70;;;;;;;21.07;17.80;95640.38;5009642;28;20104;-65
2022/01/17 09:39:00;;;;;;;15.23;10.52;;;;;;;21.24;17.50;95640.56;5009306;28;20041;-64
2022/01/17 09:41:25;;;;;;;16.65;12.02;;;;;;;21.62;17.39;95639.50;5009351;28;20041;-67
2022/01/17 09:43:51;;;;;;;17.58;11.48;;;;;;;21.46;17.41;95658.53;5009310;28;20049;-68
2022/01/17 09:46:21;;;;;;;16.17;10.95;;;;;;;20.97;18.02;95641.41;5009078;28;20041;-70
2022/01/17 09:48:59;;;;;;;18.33;11.13;;;;;;;19.77;18.76;95629.69;5009895;28;20034;-70
2022/01/17 09:52:04;;;;;;;13.10;10.57;;;;;;;19.03;19.77;95646.63;5009468;28;20037;-65
2022/01/17 09:54:36;;;;;;;17.33;11.63;;;;;;;19.13;19.95;95636.22;5009218;28;20026;-66
2022/01/17 09:57:06;;;;;;;18.23;10.95;;;;;;;19.43;19.72;95645.75;5009070;28;20046;-68
2022/01/17 09:59:34;;;;;;;17.55;10.57;;;;;;;18.87;20.75;95655.81;5008929;28;20066;-68
2022/01/17 10:02:00;;;;;;;16.08;10.88;;;;;;;19.50;20.24;95657.31;5008757;28;20049;-68
2022/01/17 10:04:29;;;;;;;13.23;9.48;;;;;;;18.94;20.92;95622.13;5008705;28;20029;-67
2022/01/17 10:06:57;;;;;;;14.50;8.65;;;;;;;18.83;20.86;95671.84;5009152;28;20416;-67
2022/01/17 10:09:25;;;;;;;13.18;6.95;;;;;;;17.25;22.54;95639.56;5009088;28;20033;-70
2022/01/17 10:12:03;;;;;;;16.40;7.80;;;;;;;18.19;22.03;95678.94;5005163;28;20049;-70
2022/01/17 10:14:35;;;;;;;9.68;6.45;;;;;;;17.38;22.30;95671.53;5004683;28;20488;-66
2022/01/17 10:17:03;;;;;;;20.85;7.53;;;;;;;17.68;22.62;95675.22;5007835;28;20036;-68
2022/01/17 10:19:29;;;;;;;12.85;7.38;;;;;;;17.30;22.74;95660.88;5007670;28;20037;-63
2022/01/17 10:22:13;;;;;;;11.20;6.85;;;;;;;17.20;22.76;95634.72;5008152;28;20462;-63
2022/01/17 10:25:03;;;;;;;14.70;7.72;;;;;;;17.89;22.21;95656.19;5008358;28;20046;-62
2022/01/17 10:30:49;;;;;;;14.57;6.90;;;;;;;18.32;21.62;95674.34;5002007;28;20322;-66
2022/01/17 10:35:58;;;;;;;13.82;7.07;;;;;;;18.48;21.36;95646.94;5005112;28;20071;-65
2022/01/17 10:38:27;;;;;;;9.85;6.28;;;;;;;17.72;21.98;95629.66;5005417;28;20469;-69
2022/01/17 10:41:02;;;;;;;12.07;6.78;;;;;;;18.02;21.61;95643.81;5005518;28;20057;-64
2022/01/17 10:43:38;;;;;;;8.27;5.90;;;;;;;19.21;20.82;95639.78;5002145;28;20072;-65
2022/01/17 10:46:09;;;;;;;11.75;6.88;;;;;;;19.94;20.04;95636.00;5003493;28;20033;-65
2022/01/17 10:48:37;;;;;;;10.10;6.40;;;;;;;18.76;21.05;95621.91;5008440;28;20034;-65
2022/01/17 10:51:05;;;;;;;7.78;6.43;;;;;;;18.67;21.29;95630.53;5008869;28;20129;-64
2022/01/17 10:53:31;;;;;;;10.13;7.25;;;;;;;20.01;19.87;95617.00;5011190;28;20026;-66
2022/01/17 10:56:07;;;;;;;12.70;7.63;;;;;;;19.54;20.45;95627.31;5011472;28;20504;-64
2022/01/17 10:58:35;;;;;;;9.48;6.80;;;;;;;19.15;20.59;95639.50;5011007;28;20093;-63
2022/01/17 11:01:04;;;;;;;9.60;6.15;;;;;;;17.79;21.59;95648.25;5007118;28;20085;-67
2022/01/17 11:03:32;;;;;;;10.75;6.90;;;;;;;15.41;24.44;95608.34;4988219;28;20034;-65
2022/01/17 11:06:03;;;;;;;9.23;6.10;;;;;;;15.89;24.33;95647.31;4988581;28;20417;-63
2022/01/17 11:08:30;;;;;;;9.13;6.00;;;;;;;13.55;27.18;95653.03;4988128;28;20473;-65
2022/01/17 11:10:59;;;;;;;9.07;5.93;;;;;;;10.94;31.18;95649.47;4988493;28;20043;-66
2022/01/17 11:13:31;;;;;;;8.48;5.88;;;;;;;9.59;34.11;95657.22;4988941;28;20037;-66
2022/01/17 11:16:04;;;;;;;10.50;6.63;;;;;;;11.17;31.64;95659.34;4988347;28;20060;-66
2022/01/17 11:18:31;;;;;;;9.40;5.68;;;;;;;10.40;32.66;95606.72;4988316;28;20468;-66
2022/01/17 11:20:59;;;;;;;10.05;6.82;;;;;;;10.36;33.62;95632.75;4988467;28;20030;-66
2022/01/17 11:23:28;;;;;;;11.55;7.63;;;;;;;10.03;34.00;95623.25;4988406;28;20149;-66
2022/01/17 11:25:55;;;;;;;12.73;8.52;;;;;;;11.32;32.28;95618.13;4989018;28;20229;-67
2022/01/17 11:28:24;;;;;;;10.05;6.53;;;;;;;14.03;27.50;95604.06;5002736;28;20476;-67
2022/01/17 11:30:53;;;;;;;9.27;6.38;;;;;;;14.69;26.21;95588.34;5008110;28;20096;-64
2022/01/17 11:33:19;;;;;;;10.45;6.43;;;;;;;14.98;25.50;95570.69;5008026;28;20332;-67
2022/01/17 11:35:51;;;;;;;12.40;7.07;;;;;;;17.17;22.44;95542.94;5007654;28;20049;-64
2022/01/17 11:38:25;;;;;;;9.55;6.43;;;;;;;19.12;20.52;95577.03;5002215;28;20496;-64
2022/01/17 11:40:52;;;;;;;8.30;6.15;;;;;;;18.10;21.47;95575.28;5007518;28;20088;-67
2022/01/17 11:43:34;;;;;;;7.45;5.50;;;;;;;18.54;20.33;95592.41;5006382;28;20030;-65
2022/01/17 11:46:18;;;;;;;8.85;6.55;;;;;;;20.51;18.71;95594.13;5007549;28;20030;-66
2022/01/17 11:49:06;;;;;;;7.78;6.10;;;;;;;20.67;18.66;95556.84;5008182;28;20030;-65
2022/01/17 11:51:44;;;;;;;8.13;6.13;;;;;;;20.98;18.08;95599.31;5007504;28;20033;-67